Map

Track Data

SID SEASON NUMBER BASIN SUBBASIN NAME ISO_TIME NATURE LAT LON WMO_WIND WMO_PRES WMO_AGENCY TRACK_TYPE DIST2LAND LANDFALL IFLAG USA_AGENCY USA_ATCF_ID USA_LAT USA_LON USA_RECORD USA_STATUS USA_WIND USA_PRES USA_SSHS USA_R34_NE USA_R34_SE USA_R34_SW USA_R34_NW USA_R50_NE USA_R50_SE USA_R50_SW USA_R50_NW USA_R64_NE USA_R64_SE USA_R64_SW USA_R64_NW USA_POCI USA_ROCI USA_RMW USA_EYE TOKYO_LAT TOKYO_LON TOKYO_GRADE TOKYO_WIND TOKYO_PRES TOKYO_R50_DIR TOKYO_R50_LONG TOKYO_R50_SHORT TOKYO_R30_DIR TOKYO_R30_LONG TOKYO_R30_SHORT TOKYO_LAND CMA_LAT CMA_LON CMA_CAT CMA_WIND CMA_PRES HKO_LAT HKO_LON HKO_CAT HKO_WIND HKO_PRES NEWDELHI_LAT NEWDELHI_LON NEWDELHI_GRADE NEWDELHI_WIND NEWDELHI_PRES NEWDELHI_CI NEWDELHI_DP NEWDELHI_POCI REUNION_LAT REUNION_LON REUNION_TYPE REUNION_WIND REUNION_PRES REUNION_TNUM REUNION_CI REUNION_RMW REUNION_R34_NE REUNION_R34_SE REUNION_R34_SW REUNION_R34_NW REUNION_R50_NE REUNION_R50_SE REUNION_R50_SW REUNION_R50_NW REUNION_R64_NE REUNION_R64_SE REUNION_R64_SW REUNION_R64_NW BOM_LAT BOM_LON BOM_TYPE BOM_WIND BOM_PRES BOM_TNUM BOM_CI BOM_RMW BOM_R34_NE BOM_R34_SE BOM_R34_SW BOM_R34_NW BOM_R50_NE BOM_R50_SE BOM_R50_SW BOM_R50_NW BOM_R64_NE BOM_R64_SE BOM_R64_SW BOM_R64_NW BOM_ROCI BOM_POCI BOM_EYE BOM_POS_METHOD BOM_PRES_METHOD NADI_LAT NADI_LON NADI_CAT NADI_WIND NADI_PRES WELLINGTON_LAT WELLINGTON_LON WELLINGTON_WIND WELLINGTON_PRES DS824_LAT DS824_LON DS824_STAGE DS824_WIND DS824_PRES TD9636_LAT TD9636_LON TD9636_STAGE TD9636_WIND TD9636_PRES TD9635_LAT TD9635_LON TD9635_WIND TD9635_PRES TD9635_ROCI NEUMANN_LAT NEUMANN_LON NEUMANN_CLASS NEUMANN_WIND NEUMANN_PRES MLC_LAT MLC_LON MLC_CLASS MLC_WIND MLC_PRES USA_GUST BOM_GUST BOM_GUST_PER REUNION_GUST REUNION_GUST_PER USA_SEAHGT USA_SEARAD_NE USA_SEARAD_SE USA_SEARAD_SW USA_SEARAD_NW STORM_SPEED STORM_DIR
1962336S13066 1963 108 SI MM BERTHA 1962-12-01 12:00:00 TS -12.5000 66.2000 reunion main 1243 1196 _____O______O_ -1 -12.5000 66.2000 4 9.90000 -12.5000 66.2000 TC 65 9 209
1962336S13066 1963 108 SI MM BERTHA 1962-12-01 15:00:00 TS -12.9050 65.9677 main 1196 1079 _____P______P_ -1 -12.9050 65.9677 4 -12.9050 65.9677 TC 67 16 234
1962336S13066 1963 108 SI MM BERTHA 1962-12-01 18:00:00 TS -13.4333 64.9000 reunion main 1072 1009 O____O___OO_O_ jtwc_sh SH041963 -13.7000 63.3000 -1 -13.3000 65.7000 99 9.90000 -13.7000 63.3000 TC -13.7000 63.3000 7 -13.3000 65.7000 TC 70 18 238
1962336S13066 1963 108 SI MM BERTHA 1962-12-01 21:00:00 TS -13.8204 64.4407 main 1002 940 P____P___PP_P_ SH041963 -13.9875 63.2125 -1 -13.6850 65.3723 99 -13.9875 63.2125 TC -14.0282 63.1707 7 -13.6850 65.3723 TC 70 12 229
1962336S13066 1963 108 SI MM BERTHA 1962-12-02 00:00:00 TS -14.2156 63.9840 reunion main 940 877 O____O___OP_O_ jtwc_sh SH041963 -14.3000 63.1000 -1 -14.1000 65.0000 99 9.90000 -14.3000 63.1000 TC -14.3551 63.0429 7 -14.1000 65.0000 TC 70 12 225
1962336S13066 1963 108 SI MM BERTHA 1962-12-02 03:00:00 TS -14.6359 63.6068 main 877 831 P____P___PP_P_ SH041963 -14.6500 62.9500 -1 -14.6000 64.6075 99 -14.6500 62.9500 TC -14.6794 62.9187 7 -14.6000 64.6075 TC 72 10 216
1962336S13066 1963 108 SI MM BERTHA 1962-12-02 06:00:00 TS -15.0400 63.3600 reunion main 831 776 O____O___OO_O_ jtwc_sh SH041963 -15.0000 62.8000 -1 -15.1000 64.2000 99 9.90000 -15.0000 62.8000 TC 35 -15.0000 62.8000 2 -15.1000 64.2000 TC 75 9 211
1962336S13066 1963 108 SI MM BERTHA 1962-12-02 09:00:00 TS -15.3953 63.1343 main 776 738 P____P___PP_P_ SH041963 -15.3000 62.6999 -1 -15.5300 63.7924 99 -15.3000 62.6999 TC 35 -15.3168 62.6869 2 -15.5300 63.7924 TC 77 8 212
1962336S13066 1963 108 SI MM BERTHA 1962-12-02 12:00:00 TS -15.7270 62.9144 reunion main 738 699 O____O___OP_O_ jtwc_sh SH041963 -15.6000 62.6000 -1 -15.9000 63.4000 4 9.90000 -15.6000 62.6000 TC 35 -15.6349 62.5720 2 -15.9000 63.4000 TC 80 8 213
1962336S13066 1963 108 SI MM BERTHA 1962-12-02 15:00:00 TS -16.0550 62.6951 main 692 654 P____P___PP_P_ SH041963 -15.9425 62.4575 -1 -16.2148 63.0572 4 -15.9425 62.4575 TC 35 -15.9605 62.4462 2 -16.2148 63.0572 TC 80 8 214
1962336S13066 1963 108 SI MM BERTHA 1962-12-02 18:00:00 TS -16.3800 62.4600 reunion main 654 608 O____O___OO_O_ jtwc_sh SH041963 -16.3000 62.3000 -1 -16.5000 62.7000 99 9.90000 -16.3000 62.3000 TC 35 -16.3000 62.3000 2 -16.5000 62.7000 TC 80 8 216
1962336S13066 1963 108 SI MM BERTHA 1962-12-02 21:00:00 TS -16.7126 62.2033 main 608 562 P____P___PP_P_ SH041963 -16.6424 62.1648 -1 -16.7924 62.2723 99 -16.6424 62.1648 TC 35 -16.6930 62.1419 2 -16.7924 62.2723 TC 80 9 218
1962336S13066 1963 108 SI MM BERTHA 1962-12-03 00:00:00 TS -17.0589 61.9120 reunion main 555 509 O____O___OP_O_ jtwc_sh SH041963 -17.0000 62.0000 -1 -17.1000 61.8000 99 9.90000 -17.0000 62.0000 TC 35 -17.0947 61.9601 2 -17.1000 61.8000 TC 80 9 219
1962336S13066 1963 108 SI MM BERTHA 1962-12-03 03:00:00 TS -17.4438 61.5787 main 509 449 P____P___PP_P_ SH041963 -17.4224 61.7801 -1 -17.4500 61.2925 99 -17.4224 61.7801 TC 35 -17.4742 61.7482 2 -17.4500 61.2925 TC 80 10 222
1962336S13066 1963 108 SI MM BERTHA 1962-12-03 06:00:00 TS -17.8000 61.2200 reunion main 449 410 O____O___OO_O_ jtwc_sh SH041963 -17.8000 61.5000 -1 -17.8000 60.8000 99 9.90000 -17.8000 61.5000 TC 35 -17.8000 61.5000 2 -17.8000 60.8000 TC 80 9 229
1962336S13066 1963 108 SI MM BERTHA 1962-12-03 09:00:00 TS -18.0611 60.8368 main 395 356 P____P___PP_P_ SH041963 -18.0375 61.1574 -1 -18.1150 60.3475 99 -18.0375 61.1574 TC 35 -18.0004 61.1740 2 -18.1150 60.3475 TC 80 8 236
1962336S13066 1963 108 SI MM BERTHA 1962-12-03 12:00:00 TS -18.2701 60.4839 reunion main 356 324 O____O___OP_O_ jtwc_sh SH041963 -18.2000 60.8000 -1 -18.4000 60.0000 4 9.90000 -18.2000 60.8000 TC 35 -18.1506 60.8195 2 -18.4000 60.0000 TC 80 7 237
1962336S13066 1963 108 SI MM BERTHA 1962-12-03 15:00:00 TS -18.4570 60.2029 main 317 293 P____P___PP_P_ SH041963 -18.3350 60.4699 -1 -18.6574 59.7973 4 -18.3350 60.4699 TC 35 -18.3004 60.4803 2 -18.6574 59.7973 TC 80 6 230
1962336S13066 1963 108 SI MM BERTHA 1962-12-03 18:00:00 TS -18.6600 60.0000 reunion main 287 266 O____O___OO_O_ jtwc_sh SH041963 -18.5000 60.2000 -1 -18.9000 59.7000 99 9.90000 -18.5000 60.2000 TC 35 -18.5000 60.2000 2 -18.9000 59.7000 TC 80 6 215
1962336S13066 1963 108 SI MM BERTHA 1962-12-03 21:00:00 TS -18.9167 59.8643 main 266 241 P____P___PP_P_ SH041963 -18.7549 60.0125 -1 -19.1425 59.6349 99 -18.7549 60.0125 TC 35 -18.7888 60.0269 2 -19.1425 59.6349 TC 77 6 200
1962336S13066 1963 108 SI MM BERTHA 1962-12-04 00:00:00 TS -19.2274 59.7834 reunion main 241 213 O____O___OP_O_ jtwc_sh SH041963 -19.1000 59.9000 -1 -19.4000 59.6000 99 9.90000 -19.1000 59.9000 TC 35 -19.1372 59.9171 2 -19.4000 59.6000 TC 75 7 192
1962336S13066 1963 108 SI MM BERTHA 1962-12-04 03:00:00 TS -19.5904 59.7177 main 213 201 P____P___PP_P_ SH041963 -19.5125 59.8349 -1 -19.6925 59.5351 99 -19.5125 59.8349 TC 35 -19.5420 59.8488 2 -19.6925 59.5351 TC 72 8 187
1962336S13066 1963 108 SI MM BERTHA 1962-12-04 06:00:00 TS -20.0000 59.6800 reunion main 201 198 O____O___OO_O_ jtwc_sh SH041963 -20.0000 59.8000 -1 -20.0000 59.5000 99 9.90000 -20.0000 59.8000 TC 35 -20.0000 59.8000 2 -20.0000 59.5000 TC 70 8 184
1962336S13066 1963 108 SI MM BERTHA 1962-12-04 09:00:00 TS -20.4304 59.6619 main 198 198 P____P___PP_P_ SH041963 -20.5350 59.7500 -1 -20.2850 59.5350 99 -20.5350 59.7500 TC 35 -20.5118 59.7394 2 -20.2850 59.5350 TC 67 9 182
1962336S13066 1963 108 SI MM BERTHA 1962-12-04 12:00:00 TS -20.8940 59.6584 reunion main 208 208 O____O___OP_O_ jtwc_sh SH041963 -21.1000 59.7000 -1 -20.6000 59.6000 4 9.90000 -21.1000 59.7000 TC 35 -21.0700 59.6921 2 -20.6000 59.6000 TC 65 10 181
1962336S13066 1963 108 SI MM BERTHA 1962-12-04 15:00:00 TS -21.3886 59.6497 main 221 221 P____P___PP_P_ SH041963 -21.6650 59.6500 -1 -20.9850 59.6500 4 -21.6650 59.6500 TC 35 -21.6431 59.6488 2 -20.9850 59.6500 TC 62 10 0
1962336S13066 1963 108 SI MM BERTHA 1962-12-04 18:00:00 TS -21.8800 59.6400 reunion main 251 251 O____O___OO_O_ jtwc_sh SH041963 -22.2000 59.6000 -1 -21.4000 59.7000 99 9.90000 -22.2000 59.6000 TC 35 -22.2000 59.6000 2 -21.4000 59.7000 TC 60 9 0
1962336S13066 1963 108 SI MM BERTHA 1962-12-04 21:00:00 TS -22.3092 59.6258 main 281 281 P____P___PP_P_ SH041963 -22.6575 59.5574 -1 -21.7775 59.7352 99 -22.6575 59.5574 TC 35 -22.6762 59.5438 2 -21.7775 59.7352 TC 57 9 0
1962336S13066 1963 108 SI MM BERTHA 1962-12-05 00:00:00 TS -22.7470 59.6158 reunion main 314 314 O____O___OP_O_ jtwc_sh SH041963 -23.1000 59.5000 -1 -22.2000 59.8000 99 9.90000 -23.1000 59.5000 TC 35 -23.1349 59.4791 2 -22.2000 59.8000 TC 55 9 0
1962336S13066 1963 108 SI MM BERTHA 1962-12-05 03:00:00 TS -23.2272 59.6111 main 359 359 P____P___PP_P_ SH041963 -23.5775 59.4149 -1 -22.6900 59.9129 99 -23.5775 59.4149 TC 35 -23.6012 59.3999 2 -22.6900 59.9129 TC 52 10 179
1962336S13066 1963 108 SI MM BERTHA 1962-12-05 06:00:00 MX -23.7800 59.6200 reunion main 417 417 O____O___OO_O_ jtwc_sh SH041963 -24.1000 59.3000 -1 -23.3000 60.1000 99 9.90000 -24.1000 59.3000 TC 35 -24.1000 59.3000 2 -23.3000 60.1000 EX 50 12 178
1962336S13066 1963 108 SI MM BERTHA 1962-12-05 09:00:00 MX -24.4447 59.6480 main 477 477 P____P___PP_P_ SH041963 -24.6850 59.1575 -1 -24.0926 60.3845 99 -24.6850 59.1575 TC 35 -24.6683 59.1561 2 -24.0926 60.3845 EX 47 14 178
1962336S13066 1963 108 SI MM BERTHA 1962-12-05 12:00:00 MX -25.1340 59.6787 reunion main 553 553 O____O___OP_O_ jtwc_sh SH041963 -25.3000 59.0000 -1 -24.9000 60.7000 5 9.90000 -25.3000 59.0000 TC 35 -25.2702 58.9937 2 -24.9000 60.7000 EX 45 13 179
1962336S13066 1963 108 SI MM BERTHA 1962-12-05 15:00:00 MX -25.7523 59.6841 main 626 626 P____P___PP_P_ SH041963 -25.9000 58.8425 -1 -25.5373 60.9506 5 -25.9000 58.8425 TC 35 -25.8871 58.8343 2 -25.5373 60.9506 EX 42 12 0
1962336S13066 1963 108 SI MM BERTHA 1962-12-05 18:00:00 MX -26.3400 59.7000 reunion main 679 679 O____O___OO_O_ jtwc_sh SH041963 -26.5000 58.7000 -1 -26.1000 61.2000 99 9.90000 -26.5000 58.7000 TC 35 -26.5000 58.7000 2 -26.1000 61.2000 EX 40 12 177
1962336S13066 1963 108 SI MM BERTHA 1962-12-05 21:00:00 MX -26.9189 59.7468 main 740 740 P____P___PP_P_ SH041963 -27.1075 58.5775 -1 -26.6424 61.4855 99 -27.1075 58.5775 TC 35 -27.0945 58.6077 2 -26.6424 61.4855 EX 37 12 164
1962336S13066 1963 108 SI MM BERTHA 1962-12-06 00:00:00 MX -27.4598 60.0620 reunion main 817 817 O____O___OP_O_ jtwc_sh SH041963 -27.7000 58.5000 -1 -27.2000 61.8000 99 9.90000 -27.7000 58.5000 TC 35 -27.6723 58.5516 2 -27.2000 61.8000 EX 35 13 146
1962336S13066 1963 108 SI MM BERTHA 1962-12-06 03:00:00 MX -28.0141 60.5751 main 888 888 P____P___PP_P_ SH041963 -28.2600 58.4823 -1 -27.8349 62.1353 99 -28.2600 58.4823 TC 35 -28.2389 58.5197 2 -27.8349 62.1353 EX 32 15 139
1962336S13066 1963 108 SI MM BERTHA 1962-12-06 06:00:00 MX -28.6000 61.1667 reunion main 971 971 O____O___OO_O_ jtwc_sh SH041963 -28.8000 58.5000 -1 -28.5000 62.5000 99 9.90000 -28.8000 58.5000 TC 35 -28.8000 58.5000 2 -28.5000 62.5000 EX 30 23 119
1962336S13066 1963 108 SI MM BERTHA 1962-12-06 09:00:00 ET -29.1553 62.8915 main 1104 1104 _____P______P_ SH041963 -1 -29.1553 62.8915 99 TC 2 -29.1553 62.8915 EX 30 22 123
1962336S13066 1963 108 SI MM BERTHA 1962-12-06 12:00:00 ET -29.8000 63.3000 reunion main 1181 _____O______O_ -1 -29.8000 63.3000 5 9.90000 2 -29.8000 63.3000 EX 30 15 151

About IBTrACS Database

This database is a web-friendly format of International Best Track Archive for Climate Stewardship (IBTrACS), a global best track data archive curated by NOAA dating back to 1842.

Updated: 2021-12-03